Time;durP1;ratioP1;P1;durP2;ratioP2;P2;SDS_P1;SDS_P2;PMS_P1;PMS_P2;Temp;Humidity;BMP_temperature;BMP_pressure;BME280_temperature;BME280_humidity;BME280_pressure;Samples;Min_cycle;Max_cycle;Signal;HPM_P1;HPM_P2
2022/07/05 00:00:06;;;;;;;7.43;4.70;;;;;;;27.89;37.12;102219.16;5073014;28;20074;-71
2022/07/05 00:02:31;;;;;;;6.07;4.43;;;;;;;27.78;37.18;102217.16;5072641;28;20481;-71
2022/07/05 00:04:57;;;;;;;7.18;4.70;;;;;;;27.88;37.49;102218.28;5074520;28;20031;-71
2022/07/05 00:07:22;;;;;;;6.57;4.63;;;;;;;27.91;37.49;102223.47;5074965;28;20038;-71
2022/07/05 00:09:50;;;;;;;7.30;4.93;;;;;;;27.52;38.07;102216.91;5085026;28;20533;-71
2022/07/05 00:12:17;;;;;;;7.10;5.63;;;;;;;28.03;37.29;102215.66;5071985;28;20021;-71
2022/07/05 00:14:43;;;;;;;8.88;5.90;;;;;;;27.77;37.90;102212.72;5071763;28;20266;-71
2022/07/05 00:17:09;;;;;;;8.35;5.88;;;;;;;27.61;38.32;102211.94;5081445;28;20027;-71
2022/07/05 00:19:34;;;;;;;7.78;5.70;;;;;;;27.70;38.20;102214.06;5088569;28;20028;-71
2022/07/05 00:22:00;;;;;;;10.43;5.70;;;;;;;27.73;37.93;102205.81;5091322;28;20144;-71
2022/07/05 00:24:26;;;;;;;8.30;6.07;;;;;;;27.46;38.56;102217.28;5084076;28;20009;-71
2022/07/05 00:26:51;;;;;;;6.60;5.63;;;;;;;27.73;38.47;102216.56;5071661;28;20028;-71
2022/07/05 00:29:17;;;;;;;9.77;6.18;;;;;;;27.50;38.63;102202.69;5084385;28;20108;-71
2022/07/05 00:31:42;;;;;;;8.55;5.97;;;;;;;28.05;37.62;102208.34;5072684;28;20029;-71
2022/07/05 00:34:08;;;;;;;9.02;6.07;;;;;;;27.73;38.41;102213.88;5071107;28;20024;-71
2022/07/05 00:36:33;;;;;;;9.85;6.60;;;;;;;27.47;38.75;102208.25;5072221;28;20032;-71
2022/07/05 00:38:59;;;;;;;8.75;7.07;;;;;;;27.09;39.22;102214.06;5072058;28;20476;-71
2022/07/05 00:41:25;;;;;;;8.88;6.97;;;;;;;26.92;39.18;102210.53;5078871;28;20059;-71
2022/07/05 00:43:55;;;;;;;10.18;7.70;;;;;;;26.99;39.07;102207.50;5084342;28;20048;-71
2022/07/05 00:46:20;;;;;;;10.27;6.88;;;;;;;27.02;38.77;102212.69;5075036;28;20028;-71
2022/07/05 00:48:45;;;;;;;8.93;6.50;;;;;;;26.89;38.75;102208.03;5076553;28;20364;-71
2022/07/05 00:51:11;;;;;;;8.95;6.95;;;;;;;27.34;37.67;102201.88;5090795;28;20120;-71
2022/07/05 00:53:36;;;;;;;11.00;6.03;;;;;;;27.74;37.02;102199.50;5081647;28;20032;-71
2022/07/05 00:56:03;;;;;;;8.65;6.07;;;;;;;27.48;37.34;102204.63;5093142;28;20578;-71
2022/07/05 00:58:28;;;;;;;10.55;6.03;;;;;;;27.43;37.46;102201.34;5089811;28;20035;-71
2022/07/05 01:00:53;;;;;;;9.07;6.45;;;;;;;27.38;37.68;102203.44;5089295;28;20024;-71
2022/07/05 01:03:19;;;;;;;8.80;6.53;;;;;;;27.59;37.38;102199.47;5090061;28;20058;-71
2022/07/05 01:05:44;;;;;;;9.23;6.40;;;;;;;27.53;37.31;102199.84;5093172;28;20096;-71
2022/07/05 01:08:13;;;;;;;10.20;6.72;;;;;;;27.52;37.62;102206.19;5074914;28;20035;-71
2022/07/05 01:10:40;;;;;;;10.55;7.22;;;;;;;27.47;37.56;102208.25;5071590;28;20483;-71
2022/07/05 01:13:06;;;;;;;9.25;7.22;;;;;;;27.38;38.01;102208.81;5071132;28;20031;-71
2022/07/05 01:15:32;;;;;;;10.23;6.93;;;;;;;27.05;38.80;102212.50;5072820;28;20387;-71
2022/07/05 01:17:58;;;;;;;9.07;6.40;;;;;;;26.83;39.24;102213.75;5071017;28;20028;-71
2022/07/05 01:20:24;;;;;;;10.85;6.28;;;;;;;27.16;38.78;102210.06;5069539;28;20078;-71
2022/07/05 01:22:59;;;;;;;12.88;6.65;;;;;;;26.86;39.30;102213.59;5071126;28;20493;-71
2022/07/05 01:25:26;;;;;;;9.80;7.32;;;;;;;26.65;39.59;102212.09;5073357;28;20051;-71
2022/07/05 01:27:52;;;;;;;11.57;7.43;;;;;;;27.13;38.31;102210.22;5073215;28;20511;-71
2022/07/05 01:30:18;;;;;;;10.40;7.45;;;;;;;27.20;38.30;102217.00;5091431;28;20020;-71
2022/07/05 01:32:44;;;;;;;9.60;6.75;;;;;;;26.78;38.97;102223.88;5091071;28;20039;-71
2022/07/05 01:35:10;;;;;;;11.00;7.22;;;;;;;26.80;39.13;102213.91;5089612;28;20032;-71
2022/07/05 01:37:36;;;;;;;10.32;7.22;;;;;;;26.39;39.83;102214.41;5078096;28;20036;-70
2022/07/05 01:40:06;;;;;;;11.02;7.70;;;;;;;26.28;40.17;102211.47;5090939;28;20085;-71
2022/07/05 01:42:32;;;;;;;12.15;8.05;;;;;;;26.41;40.05;102207.16;5073960;28;20045;-71
2022/07/05 01:44:57;;;;;;;11.98;8.10;;;;;;;26.16;40.69;102205.84;5052355;28;20021;-71
2022/07/05 01:47:23;;;;;;;9.60;7.35;;;;;;;26.15;40.36;102205.91;5033547;28;20072;-71
2022/07/05 01:49:52;;;;;;;11.32;8.30;;;;;;;26.33;40.27;102209.41;5046614;28;20020;-71
2022/07/05 01:52:21;;;;;;;9.98;7.95;;;;;;;26.34;40.16;102220.03;5051251;28;20115;-71
2022/07/05 01:54:46;;;;;;;15.20;8.88;;;;;;;26.40;40.16;102210.78;5072112;28;20028;-71
2022/07/05 01:57:12;;;;;;;11.50;8.02;;;;;;;26.75;39.32;102214.19;5051895;28;20013;-71
2022/07/05 01:59:38;;;;;;;11.48;8.45;;;;;;;26.79;38.97;102208.66;5054084;28;20069;-71
2022/07/05 02:02:05;;;;;;;11.65;7.78;;;;;;;26.95;38.98;102205.97;5068946;28;20028;-71
2022/07/05 02:04:32;;;;;;;13.45;8.43;;;;;;;26.83;38.75;102205.72;5048213;28;20029;-71
2022/07/05 02:06:58;;;;;;;11.32;7.15;;;;;;;26.83;39.00;102207.53;5050650;28;20394;-71
2022/07/05 02:09:24;;;;;;;10.23;8.07;;;;;;;26.75;39.34;102205.28;5033641;28;20032;-71
2022/07/05 02:11:50;;;;;;;11.20;7.75;;;;;;;26.71;39.33;102204.59;5050245;28;20024;-71
2022/07/05 02:14:15;;;;;;;11.25;8.52;;;;;;;26.55;39.83;102209.06;5068258;28;20052;-71
2022/07/05 02:16:40;;;;;;;11.25;8.40;;;;;;;26.81;38.90;102207.59;5051793;28;20036;-71
2022/07/05 02:19:06;;;;;;;12.35;8.02;;;;;;;26.73;39.10;102200.00;5045583;28;20500;-71
2022/07/05 02:21:31;;;;;;;14.00;8.02;;;;;;;26.70;39.15;102207.38;5033788;28;20071;-71
2022/07/05 02:23:56;;;;;;;13.85;7.63;;;;;;;26.72;38.67;102200.09;5043440;28;20066;-71
2022/07/05 02:26:22;;;;;;;9.57;7.63;;;;;;;26.99;38.11;102202.16;5068972;28;20184;-71
2022/07/05 02:28:49;;;;;;;10.45;6.90;;;;;;;26.92;38.27;102205.16;5053721;28;20028;-71
2022/07/05 02:31:16;;;;;;;10.20;7.28;;;;;;;26.57;39.14;102201.78;5053001;28;20079;-71
2022/07/05 02:33:41;;;;;;;12.90;7.55;;;;;;;26.56;39.41;102206.28;5056151;28;20029;-71
2022/07/05 02:36:09;;;;;;;10.70;8.15;;;;;;;26.69;39.11;102206.44;5047952;28;20484;-71
2022/07/05 02:38:35;;;;;;;9.32;7.07;;;;;;;26.68;39.14;102209.22;5067848;28;20032;-70
2022/07/05 02:41:00;;;;;;;11.88;7.55;;;;;;;26.54;39.23;102208.22;5053634;28;20388;-71
2022/07/05 02:43:25;;;;;;;11.43;7.53;;;;;;;26.42;39.49;102208.91;5069000;28;20052;-71
2022/07/05 02:45:51;;;;;;;13.35;7.50;;;;;;;26.55;39.50;102199.19;5053125;28;20021;-71
2022/07/05 02:48:16;;;;;;;9.05;7.28;;;;;;;26.48;39.51;102205.00;5033852;28;20028;-71
2022/07/05 02:50:41;;;;;;;11.25;7.88;;;;;;;26.36;39.72;102209.22;5035556;28;20016;-71
2022/07/05 02:53:07;;;;;;;8.07;7.05;;;;;;;26.38;39.38;102207.34;5052418;28;20021;-71
2022/07/05 02:55:32;;;;;;;11.40;7.20;;;;;;;26.87;38.13;102212.63;5055200;28;20036;-71
2022/07/05 02:57:57;;;;;;;10.13;7.60;;;;;;;26.22;39.69;102207.31;5038261;28;20017;-71
2022/07/05 03:00:23;;;;;;;8.52;7.20;;;;;;;26.40;39.41;102205.41;5052920;28;20029;-71
2022/07/05 03:02:48;;;;;;;10.32;7.40;;;;;;;26.20;39.65;102209.19;5069726;28;20033;-71
2022/07/05 03:05:14;;;;;;;14.13;8.15;;;;;;;26.08;39.86;102213.41;5056236;28;20032;-71
2022/07/05 03:07:39;;;;;;;13.57;8.30;;;;;;;26.03;40.12;102215.47;5056352;28;20094;-71
2022/07/05 03:10:05;;;;;;;9.93;7.32;;;;;;;26.39;38.89;102214.41;5054097;28;20083;-71
2022/07/05 03:12:30;;;;;;;10.95;7.65;;;;;;;26.11;40.06;102210.56;5054479;28;20020;-71
2022/07/05 03:14:55;;;;;;;11.88;7.47;;;;;;;26.11;39.53;102213.25;5052785;28;20392;-71
2022/07/05 03:17:21;;;;;;;10.52;8.20;;;;;;;26.15;40.05;102216.63;5056739;28;20107;-72
2022/07/05 03:19:46;;;;;;;7.60;6.25;;;;;;;26.05;40.34;102227.00;5053537;28;20067;-72
2022/07/05 03:22:11;;;;;;;10.95;7.57;;;;;;;26.15;40.27;102217.50;5038609;28;20165;-71
2022/07/05 03:24:37;;;;;;;9.85;6.72;;;;;;;26.17;40.40;102215.59;5045903;28;20481;-72
2022/07/05 03:27:02;;;;;;;12.68;6.93;;;;;;;26.20;40.13;102219.91;5036302;28;20054;-72
2022/07/05 03:29:28;;;;;;;10.25;7.78;;;;;;;26.47;39.81;102222.88;5047230;28;20020;-71
2022/07/05 03:31:53;;;;;;;9.88;8.13;;;;;;;26.48;39.98;102229.97;5047636;28;20025;-72
2022/07/05 03:34:18;;;;;;;10.63;7.70;;;;;;;26.48;39.88;102229.97;5037312;28;20423;-72
2022/07/05 03:36:44;;;;;;;9.88;7.63;;;;;;;26.38;40.30;102228.78;5044396;28;20505;-72
2022/07/05 03:39:09;;;;;;;13.40;8.95;;;;;;;26.40;40.57;102229.53;5036610;28;20392;-72
2022/07/05 03:41:34;;;;;;;12.10;9.23;;;;;;;26.44;40.26;102233.78;5058401;28;20032;-72
2022/07/05 03:44:00;;;;;;;11.05;8.75;;;;;;;26.50;40.32;102230.78;5080516;28;20044;-72
2022/07/05 03:46:25;;;;;;;11.60;8.50;;;;;;;26.55;40.30;102239.41;5072849;28;20074;-72
2022/07/05 03:48:52;;;;;;;11.73;7.70;;;;;;;26.71;39.93;102235.91;5092467;28;20460;-72
2022/07/05 03:51:17;;;;;;;10.80;7.80;;;;;;;26.72;40.14;102232.25;5091527;28;20437;-71
2022/07/05 03:53:42;;;;;;;11.07;8.07;;;;;;;26.75;40.24;102226.75;5092283;28;20024;-72
2022/07/05 03:56:08;;;;;;;11.32;7.75;;;;;;;26.55;40.47;102236.72;5082708;28;20067;-71
2022/07/05 03:58:33;;;;;;;11.50;8.57;;;;;;;26.81;40.25;102230.91;5077704;28;20047;-71
2022/07/05 04:00:59;;;;;;;14.35;8.55;;;;;;;27.41;38.95;102232.81;5084331;28;20032;-71
2022/07/05 04:03:24;;;;;;;11.00;7.65;;;;;;;27.07;39.31;102232.06;5070970;28;20035;-71
2022/07/05 04:05:49;;;;;;;9.57;7.85;;;;;;;27.14;39.21;102228.06;5074005;28;20407;-71
2022/07/05 04:08:15;;;;;;;12.25;9.35;;;;;;;27.24;39.35;102233.75;5072771;28;20089;-72
2022/07/05 04:10:40;;;;;;;16.00;10.57;;;;;;;27.08;39.72;102239.19;5071745;28;20079;-72
2022/07/05 04:13:06;;;;;;;17.33;10.80;;;;;;;27.16;39.17;102242.28;5074093;28;20029;-71
2022/07/05 04:15:31;;;;;;;17.25;11.00;;;;;;;26.81;40.16;102236.25;5091637;28;20035;-71
2022/07/05 04:17:57;;;;;;;18.95;11.35;;;;;;;26.39;40.82;102241.19;5091977;28;20081;-71
2022/07/05 04:20:24;;;;;;;17.08;10.77;;;;;;;26.96;39.79;102234.53;5083032;28;20032;-72
2022/07/05 04:22:50;;;;;;;15.52;10.93;;;;;;;26.91;39.60;102243.69;5072060;28;20028;-71
2022/07/05 04:25:19;;;;;;;19.70;11.05;;;;;;;26.88;39.75;102243.84;5087389;28;20032;-72
2022/07/05 04:27:51;;;;;;;13.27;9.90;;;;;;;27.15;39.15;102245.91;5093947;28;20060;-72
2022/07/05 04:30:18;;;;;;;16.75;11.68;;;;;;;27.18;39.22;102239.50;5091846;28;20031;-71
2022/07/05 04:32:44;;;;;;;15.18;10.02;;;;;;;27.27;38.61;102233.56;5092565;28;20118;-71
2022/07/05 04:35:10;;;;;;;17.63;10.98;;;;;;;26.99;39.21;102245.06;5086215;28;20647;-71
2022/07/05 04:37:36;;;;;;;15.32;10.02;;;;;;;26.76;39.96;102241.88;5091736;28;20039;-72
2022/07/05 04:40:04;;;;;;;13.18;9.63;;;;;;;26.94;39.83;102245.31;5090526;28;20468;-72
2022/07/05 04:42:29;;;;;;;12.63;9.32;;;;;;;27.01;39.97;102248.50;5082244;28;20056;-71
2022/07/05 04:44:54;;;;;;;17.10;10.55;;;;;;;27.20;39.43;102251.88;5091134;28;20085;-72
2022/07/05 04:47:20;;;;;;;17.20;10.50;;;;;;;27.36;39.63;102242.94;5081781;28;20366;-72
2022/07/05 04:49:45;;;;;;;16.80;9.68;;;;;;;27.46;39.23;102259.38;5083466;28;20107;-72
2022/07/05 04:52:10;;;;;;;12.48;8.85;;;;;;;27.92;37.78;102254.75;5091749;28;20047;-72
2022/07/05 04:54:37;;;;;;;10.52;7.97;;;;;;;28.83;36.75;102248.22;5084788;28;20392;-72
2022/07/05 04:57:03;;;;;;;9.77;7.55;;;;;;;29.42;36.72;102255.13;5077399;28;20021;-72
2022/07/05 04:59:28;;;;;;;9.70;7.20;;;;;;;30.14;35.45;102246.56;5087545;28;20028;-72
2022/07/05 05:01:53;;;;;;;8.73;6.78;;;;;;;30.46;34.36;102246.13;5071764;28;20051;-72
2022/07/05 05:04:19;;;;;;;7.72;6.40;;;;;;;31.17;32.88;102246.28;5073630;28;20032;-72
2022/07/05 05:06:44;;;;;;;7.25;5.65;;;;;;;31.85;31.63;102246.50;5074736;28;20032;-72
2022/07/05 05:09:09;;;;;;;7.00;5.70;;;;;;;32.68;30.80;102243.53;5070509;28;20040;-72
2022/07/05 05:11:35;;;;;;;5.82;5.22;;;;;;;33.16;29.21;102253.97;5083246;28;20039;-72
2022/07/05 05:14:00;;;;;;;8.95;5.28;;;;;;;32.53;30.20;102256.47;5082282;28;20077;-72
2022/07/05 05:16:26;;;;;;;9.95;5.60;;;;;;;32.67;30.08;102258.03;5071447;28;20098;-72
2022/07/05 05:18:51;;;;;;;9.45;5.65;;;;;;;31.29;31.99;102253.44;5073700;28;20036;-72
2022/07/05 05:21:17;;;;;;;8.57;5.38;;;;;;;30.71;33.03;102265.91;5087925;28;20028;-72
2022/07/05 05:23:42;;;;;;;9.50;5.80;;;;;;;31.10;32.15;102261.22;5079642;28;20025;-72
2022/07/05 05:26:07;;;;;;;9.27;5.95;;;;;;;29.70;34.60;102264.00;5071275;28;20477;-72
2022/07/05 05:28:33;;;;;;;8.13;5.97;;;;;;;29.89;34.87;102260.91;5073022;28;20032;-71
2022/07/05 05:30:59;;;;;;;11.38;6.35;;;;;;;29.89;34.79;102267.16;5070283;28;20113;-72
2022/07/05 05:33:24;;;;;;;9.60;6.03;;;;;;;28.87;36.50;102265.88;5076794;28;20105;-72
2022/07/05 05:35:50;;;;;;;7.95;5.53;;;;;;;30.54;33.89;102270.69;5076728;28;20060;-72
2022/07/05 05:38:15;;;;;;;8.93;5.68;;;;;;;30.72;33.45;102273.00;5070977;28;20496;-72
2022/07/05 05:40:41;;;;;;;7.65;5.30;;;;;;;30.61;33.77;102274.66;5084024;28;20035;-72
2022/07/05 05:43:06;;;;;;;8.32;6.25;;;;;;;30.77;33.42;102277.06;5080652;28;20044;-72
2022/07/05 05:45:32;;;;;;;7.25;4.75;;;;;;;29.84;34.85;102277.38;5089639;28;20028;-72
2022/07/05 05:47:58;;;;;;;7.03;4.72;;;;;;;30.52;33.74;102272.63;5090758;28;20055;-72
2022/07/05 05:50:29;;;;;;;9.63;5.47;;;;;;;30.00;34.12;102265.56;5090913;28;20028;-72
2022/07/05 05:52:55;;;;;;;8.27;5.65;;;;;;;29.22;35.46;102275.25;5089714;28;20035;-72
2022/07/05 05:55:22;;;;;;;8.55;6.10;;;;;;;29.95;34.86;102266.75;5089992;28;20028;-72
2022/07/05 05:57:48;;;;;;;9.20;6.10;;;;;;;30.05;34.65;102263.41;5081694;28;20111;-72
2022/07/05 06:00:17;;;;;;;9.80;6.15;;;;;;;30.05;34.43;102266.94;5074287;28;20527;-72
2022/07/05 06:02:44;;;;;;;9.93;6.25;;;;;;;30.39;34.24;102264.53;5069989;28;20077;-72
2022/07/05 06:05:09;;;;;;;7.95;5.00;;;;;;;30.38;33.39;102288.94;5080815;28;20101;-72
2022/07/05 06:07:51;;;;;;;6.13;4.90;;;;;;;30.80;33.13;102276.00;5078621;28;20111;-72
2022/07/05 06:10:22;;;;;;;7.18;5.40;;;;;;;30.20;34.21;102283.88;5074295;28;20055;-72
2022/07/05 06:12:49;;;;;;;6.03;4.75;;;;;;;30.12;34.48;102276.31;5070689;28;20056;-73
2022/07/05 06:15:15;;;;;;;8.23;5.15;;;;;;;30.00;34.94;102287.13;5073651;28;20036;-72
2022/07/05 06:17:40;;;;;;;10.60;5.63;;;;;;;30.13;34.35;102285.28;5091390;28;20039;-72
2022/07/05 06:20:08;;;;;;;11.20;5.68;;;;;;;29.31;34.80;102296.22;5087277;28;20063;-72
2022/07/05 06:22:33;;;;;;;10.88;5.90;;;;;;;29.90;34.75;102282.34;5078685;28;20071;-72
2022/07/05 06:24:58;;;;;;;9.98;5.65;;;;;;;29.41;34.84;102299.16;5080397;28;20109;-72
2022/07/05 06:27:24;;;;;;;7.72;5.65;;;;;;;29.81;34.29;102303.66;5094911;28;20032;-72
2022/07/05 06:29:49;;;;;;;8.70;5.78;;;;;;;29.20;35.45;102313.06;5093286;28;20114;-72
2022/07/05 06:32:14;;;;;;;6.85;5.63;;;;;;;30.02;34.01;102302.22;5085332;28;20029;-72
2022/07/05 06:34:40;;;;;;;9.50;5.88;;;;;;;30.07;34.71;102299.19;5076803;28;20472;-72
2022/07/05 06:37:05;;;;;;;10.68;6.32;;;;;;;29.65;35.06;102315.50;5075885;28;20025;-72
2022/07/05 06:39:30;;;;;;;12.70;6.22;;;;;;;30.51;33.29;102311.34;5083797;28;20062;-72
2022/07/05 06:41:55;;;;;;;8.52;5.50;;;;;;;29.53;34.94;102317.19;5089335;28;20029;-72
2022/07/05 06:44:21;;;;;;;8.68;4.88;;;;;;;29.81;33.69;102320.69;5046397;28;20444;-72
2022/07/05 06:46:46;;;;;;;8.23;5.10;;;;;;;30.17;33.11;102313.75;5041675;28;20226;-72
2022/07/05 06:49:11;;;;;;;6.82;4.70;;;;;;;29.13;34.63;102319.81;5037524;28;20427;-72
2022/07/05 06:51:37;;;;;;;5.95;3.25;;;;;;;29.74;33.10;102324.78;5038658;28;20036;-72
2022/07/05 06:54:02;;;;;;;6.82;3.13;;;;;;;30.06;31.73;102325.28;5038840;28;20067;-72
2022/07/05 06:56:28;;;;;;;4.68;3.17;;;;;;;30.34;32.16;102322.47;5046298;28;20059;-72
2022/07/05 06:58:53;;;;;;;6.63;2.00;;;;;;;30.06;32.35;102321.72;5039005;28;20025;-72
2022/07/05 07:01:18;;;;;;;2.75;1.40;;;;;;;30.13;30.71;102325.72;5046168;28;20492;-72
2022/07/05 07:03:44;;;;;;;2.45;1.10;;;;;;;29.82;30.60;102327.81;5068413;28;20548;-72
2022/07/05 07:06:09;;;;;;;6.43;1.30;;;;;;;30.03;30.98;102320.09;5043760;28;20033;-72
2022/07/05 07:11:18;;;;;;;3.47;1.30;;;;;;;29.95;29.93;102328.72;5055324;28;20091;-72
2022/07/05 07:13:44;;;;;;;2.63;1.05;;;;;;;30.37;29.66;102327.66;5036282;28;20037;-72
2022/07/05 07:16:09;;;;;;;3.60;1.00;;;;;;;30.68;28.79;102320.94;5036519;28;20108;-72
2022/07/05 07:18:35;;;;;;;1.65;0.70;;;;;;;31.80;27.14;102324.38;5069581;28;20492;-71
2022/07/05 07:21:01;;;;;;;1.88;0.65;;;;;;;31.32;27.46;102324.41;5073154;28;20388;-72
2022/07/05 07:23:26;;;;;;;4.68;1.10;;;;;;;30.48;28.56;102325.06;5056019;28;20017;-71
2022/07/05 07:25:51;;;;;;;1.52;0.68;;;;;;;31.40;28.20;102328.25;4990120;28;20032;-72
2022/07/05 07:28:17;;;;;;;3.72;0.85;;;;;;;30.91;28.52;102332.75;5047203;28;20797;-72
2022/07/05 07:30:42;;;;;;;2.55;0.60;;;;;;;32.29;26.76;102335.91;5067917;28;20021;-72
2022/07/05 07:33:08;;;;;;;2.30;0.70;;;;;;;32.86;26.61;102335.91;5043961;28;20387;-72
2022/07/05 07:35:33;;;;;;;1.42;0.50;;;;;;;34.03;25.43;102338.78;5042435;28;20044;-72
2022/07/05 07:37:58;;;;;;;3.28;0.90;;;;;;;34.18;23.61;102331.16;5040525;28;20457;-72
2022/07/05 07:40:24;;;;;;;0.80;0.68;;;;;;;35.28;22.69;102339.38;5047395;28;20531;-72
2022/07/05 07:42:49;;;;;;;2.63;0.90;;;;;;;35.83;22.96;102343.38;5058749;28;20071;-72
2022/07/05 07:45:14;;;;;;;4.03;0.80;;;;;;;35.66;22.32;102356.69;5077108;28;20476;-72
2022/07/05 07:47:41;;;;;;;2.70;0.70;;;;;;;36.18;21.42;102350.03;5072827;28;20429;-72
2022/07/05 07:50:08;;;;;;;1.45;0.60;;;;;;;37.79;21.91;102345.03;5075248;28;20040;-73
2022/07/05 07:52:33;;;;;;;2.38;0.60;;;;;;;38.78;18.96;102348.31;5072667;28;20032;-72
2022/07/05 07:55:00;;;;;;;1.17;0.60;;;;;;;38.29;19.24;102352.56;5073369;28;20034;-73
2022/07/05 07:57:25;;;;;;;3.45;0.80;;;;;;;34.79;21.70;102358.28;5094181;28;20414;-73
2022/07/05 07:59:51;;;;;;;2.00;0.77;;;;;;;36.29;20.95;102352.56;5085896;28;20032;-72
2022/07/05 08:02:17;;;;;;;0.75;0.52;;;;;;;33.43;21.78;102358.31;5072042;28;20024;-72
2022/07/05 08:04:42;;;;;;;1.92;0.60;;;;;;;34.30;22.21;102347.22;5073768;28;20383;-72
2022/07/05 08:07:08;;;;;;;3.72;0.73;;;;;;;33.28;24.77;102355.88;5086295;28;20023;-72
2022/07/05 08:09:33;;;;;;;2.92;0.77;;;;;;;34.88;23.12;102355.75;5072769;28;20029;-72
2022/07/05 08:11:59;;;;;;;1.75;0.60;;;;;;;34.35;23.11;102354.09;5072240;28;20024;-72
2022/07/05 08:14:24;;;;;;;2.55;0.70;;;;;;;35.04;21.14;102355.22;5078401;28;20028;-72
2022/07/05 08:16:50;;;;;;;3.90;0.65;;;;;;;36.27;20.62;102357.31;5090009;28;20476;-73
2022/07/05 08:22:01;;;;;;;2.95;0.73;;;;;;;39.33;18.76;102350.47;5085804;28;20098;-73
2022/07/05 08:24:27;;;;;;;1.23;0.60;;;;;;;40.06;18.28;102358.00;5081793;28;20032;-73
2022/07/05 08:26:52;;;;;;;3.20;0.63;;;;;;;40.36;18.88;102351.72;5089794;28;20020;-73
2022/07/05 08:29:18;;;;;;;1.50;0.50;;;;;;;39.93;17.11;102350.28;5083129;28;20091;-74
2022/07/05 08:31:45;;;;;;;1.95;0.70;;;;;;;41.07;16.77;102352.75;5079735;28;20027;-74
2022/07/05 08:34:12;;;;;;;2.10;0.43;;;;;;;38.51;17.96;102361.16;5082678;28;20032;-73
2022/07/05 08:36:39;;;;;;;1.85;0.80;;;;;;;36.03;19.67;102356.97;5070998;28;20044;-74
2022/07/05 08:39:04;;;;;;;2.28;0.52;;;;;;;34.72;20.63;102367.09;5087269;28;20047;-74
2022/07/05 08:41:33;;;;;;;1.48;0.55;;;;;;;34.88;22.24;102351.19;5073653;28;20020;-73
2022/07/05 08:44:02;;;;;;;5.18;0.88;;;;;;;36.04;20.23;102355.94;5065669;28;20052;-73
2022/07/05 08:46:30;;;;;;;2.15;0.63;;;;;;;36.91;19.29;102352.03;5035380;28;20028;-73
2022/07/05 08:48:59;;;;;;;3.17;1.30;;;;;;;36.31;20.80;102353.31;5034719;28;20028;-73
2022/07/05 08:51:27;;;;;;;4.25;1.40;;;;;;;37.19;19.05;102341.06;5066828;28;20108;-73
2022/07/05 08:53:55;;;;;;;1.63;0.60;;;;;;;36.50;20.05;102335.19;5037111;28;20033;-73
2022/07/05 08:56:21;;;;;;;2.80;0.75;;;;;;;35.91;20.35;102343.50;5055516;28;20388;-73
2022/07/05 08:58:46;;;;;;;9.73;1.00;;;;;;;36.19;20.35;102346.31;5033839;28;20021;-73
2022/07/05 09:01:13;;;;;;;1.85;0.60;;;;;;;34.89;20.85;102350.19;5040079;28;20537;-73
2022/07/05 09:03:49;;;;;;;5.68;0.88;;;;;;;36.72;20.89;102346.69;5038824;28;20017;-73
2022/07/05 09:06:38;;;;;;;2.10;1.15;;;;;;;33.58;23.29;102361.53;5064258;28;20020;-73
2022/07/05 09:09:04;;;;;;;2.60;0.60;;;;;;;33.46;23.45;102352.63;5059475;28;20041;-74
2022/07/05 09:11:40;;;;;;;2.50;0.63;;;;;;;33.04;23.81;102363.31;5051364;28;20401;-73
2022/07/05 09:14:17;;;;;;;2.17;0.70;;;;;;;34.53;23.76;102355.19;5035653;28;20063;-73
2022/07/05 09:16:42;;;;;;;2.92;0.80;;;;;;;34.61;22.43;102360.81;5051565;28;20025;-73
2022/07/05 09:19:08;;;;;;;1.58;0.60;;;;;;;37.20;20.42;102350.97;5033010;28;20082;-73
2022/07/05 09:21:34;;;;;;;4.25;0.57;;;;;;;37.34;19.95;102357.75;5040395;28;20016;-74
2022/07/05 09:24:01;;;;;;;1.83;0.70;;;;;;;34.18;21.64;102359.13;5054474;28;20484;-73
2022/07/05 09:26:36;;;;;;;5.55;0.70;;;;;;;34.75;22.07;102364.13;5053539;28;20024;-73
2022/07/05 09:29:04;;;;;;;2.00;0.68;;;;;;;35.88;21.63;102365.56;5046347;28;20376;-73
2022/07/05 09:31:33;;;;;;;2.60;0.60;;;;;;;35.26;21.72;102368.53;5052425;28;20056;-74
2022/07/05 09:34:09;;;;;;;3.53;0.70;;;;;;;35.22;21.75;102369.81;5053836;28;20036;-74
2022/07/05 09:36:47;;;;;;;3.47;0.80;;;;;;;35.82;20.91;102372.47;5034359;28;20033;-74
2022/07/05 09:39:12;;;;;;;2.03;0.50;;;;;;;34.44;21.40;102383.16;5045990;28;20020;-73
2022/07/05 09:41:38;;;;;;;1.88;0.68;;;;;;;35.14;21.78;102366.97;5049467;28;20039;-74
2022/07/05 09:44:03;;;;;;;3.03;0.70;;;;;;;35.33;21.72;102375.16;5066875;28;20036;-73
2022/07/05 09:46:32;;;;;;;2.15;0.80;;;;;;;35.37;21.61;102377.59;5077201;28;20070;-73
2022/07/05 09:48:57;;;;;;;1.38;0.60;;;;;;;35.41;21.01;102374.44;5071060;28;20039;-74
2022/07/05 09:51:23;;;;;;;2.95;0.93;;;;;;;35.57;21.29;102375.72;5079014;28;20024;-73
2022/07/05 09:53:51;;;;;;;1.98;0.63;;;;;;;35.78;21.38;102398.19;5091691;28;20035;-73
2022/07/05 09:56:17;;;;;;;3.03;0.70;;;;;;;34.45;22.63;102396.56;5085181;28;20031;-74
2022/07/05 09:58:43;;;;;;;1.92;0.80;;;;;;;34.81;22.31;102382.59;5090864;28;20035;-74
2022/07/05 10:01:29;;;;;;;3.95;0.70;;;;;;;35.09;22.39;102380.09;5090637;28;20055;-74
2022/07/05 10:04:03;;;;;;;5.63;0.80;;;;;;;34.94;22.11;102377.78;5090031;28;20027;-74
2022/07/05 10:06:31;;;;;;;2.10;0.70;;;;;;;34.74;21.83;102387.69;5085144;28;20020;-73
2022/07/05 10:08:57;;;;;;;3.17;0.68;;;;;;;34.27;22.93;102385.47;5083416;28;20031;-74
2022/07/05 10:11:27;;;;;;;3.95;0.80;;;;;;;33.55;23.10;102389.78;5071498;28;20036;-73
2022/07/05 10:13:53;;;;;;;2.30;0.65;;;;;;;32.72;24.08;102383.91;5070445;28;20104;-74
2022/07/05 10:16:20;;;;;;;1.52;0.60;;;;;;;32.02;24.38;102406.50;5071892;28;20020;-75
2022/07/05 10:18:50;;;;;;;1.45;0.70;;;;;;;32.98;23.33;102400.72;5069814;28;20498;-74
2022/07/05 10:21:17;;;;;;;8.70;0.93;;;;;;;32.31;23.86;102404.25;5077044;28;20021;-74
2022/07/05 10:23:44;;;;;;;2.78;0.70;;;;;;;31.68;24.13;102391.03;5072622;28;20021;-73
2022/07/05 10:26:12;;;;;;;2.83;0.70;;;;;;;32.94;25.19;102390.28;5075943;28;20031;-74
2022/07/05 10:28:39;;;;;;;4.45;0.57;;;;;;;33.01;23.77;102390.66;5077803;28;20028;-74
2022/07/05 10:31:08;;;;;;;1.63;0.63;;;;;;;33.26;23.72;102395.81;5067703;28;20036;-73
2022/07/05 10:33:34;;;;;;;2.83;0.80;;;;;;;32.95;23.62;102389.31;5088028;28;20450;-73
2022/07/05 10:36:00;;;;;;;1.55;0.60;;;;;;;32.65;24.43;102397.03;5076240;28;20024;-74
2022/07/05 10:38:26;;;;;;;2.97;0.68;;;;;;;32.37;24.18;102397.50;5080371;28;20024;-73
2022/07/05 10:40:55;;;;;;;3.70;0.75;;;;;;;33.33;23.10;102401.53;5075304;28;20024;-74
2022/07/05 10:43:23;;;;;;;2.92;0.80;;;;;;;34.10;22.93;102405.94;5076733;28;20041;-74
2022/07/05 10:45:50;;;;;;;2.88;0.70;;;;;;;32.96;23.44;102400.00;5073396;28;20024;-74
2022/07/05 10:48:24;;;;;;;2.33;0.65;;;;;;;34.92;22.18;102400.66;5071730;28;20034;-74
2022/07/05 10:50:53;;;;;;;4.03;0.80;;;;;;;32.17;24.75;102413.47;5073389;28;20051;-74
2022/07/05 10:53:30;;;;;;;1.73;0.63;;;;;;;32.73;24.19;102409.13;5079413;28;20027;-74
2022/07/05 10:56:02;;;;;;;2.67;0.70;;;;;;;33.13;23.32;102406.75;5080893;28;20094;-74
2022/07/05 10:58:38;;;;;;;1.55;0.73;;;;;;;34.17;22.90;102406.25;5083017;28;20107;-74
2022/07/05 11:01:15;;;;;;;2.53;0.80;;;;;;;34.96;21.90;102400.22;5088037;28;20047;-74
2022/07/05 11:03:45;;;;;;;2.47;0.70;;;;;;;35.38;20.86;102411.91;5084356;28;20028;-74
2022/07/05 11:06:22;;;;;;;4.05;1.00;;;;;;;34.67;23.34;102411.81;5074051;28;20408;-74
2022/07/05 11:08:59;;;;;;;1.02;0.60;;;;;;;33.43;22.28;102413.34;5069117;28;20073;-74
2022/07/05 11:11:35;;;;;;;2.60;0.55;;;;;;;33.57;22.34;102427.59;5070544;28;20075;-74
2022/07/05 11:14:02;;;;;;;2.60;1.20;;;;;;;33.64;21.87;102420.66;5076616;28;20049;-74
2022/07/05 11:16:35;;;;;;;3.75;0.70;;;;;;;34.08;21.56;102420.63;5089081;28;20036;-74
2022/07/05 11:19:16;;;;;;;2.30;0.70;;;;;;;34.49;21.42;102427.88;5088575;28;20031;-74
2022/07/05 11:22:01;;;;;;;5.20;0.73;;;;;;;34.65;21.18;102421.97;5086743;28;20032;-73
2022/07/05 11:24:29;;;;;;;3.00;0.80;;;;;;;34.08;21.39;102426.88;5085431;28;20027;-74